KABQ/ABQ METAR and TAF weather

Enter ICAO airport designator
Station Type Date Time Source
KABQ METAR 2022/01/29 00:52 UTC NOAA

KABQ 290052Z 03004KT 10SM CLR 06/M11 A3046 RMK AO2 SLP324 T00561111


Station Type Date Time Source
KABQ Decoded METAR 2022/01/29 00:52 UTC NOAA

ALBUQUERQUE INTERNATIONAL AIRPORT, NM, United States (KABQ) 35-02N 106-36W 1618M
Jan 28, 2022 - 07:52 PM EST / 2022.01.29 0052 UTC
Wind: from the NNE (030 degrees) at 5 MPH (4 KT):0
Visibility: 10 mile(s):0
Sky conditions: clear
Temperature: 42.1 F (5.6 C)
Dew Point: 12.0 F (-11.1 C)
Relative Humidity: 28%
Pressure (altimeter): 30.46 in. Hg (1031 hPa)
ob: KABQ 290052Z 03004KT 10SM CLR 06/M11 A3046 RMK AO2 SLP324 T00561111
cycle: 1

Station Type Date Time Source
KABQ TAF 2022/01/28 18:27 UTC NOAA

TAF KABQ 281725Z 2818/2918 36007KT P6SM SKC
FM281900 32006KT P6SM SKC
FM290100 36006KT P6SM SKC
FM291700 32007KT P6SM FEW250

Example: see airport list